Time;durP1;ratioP1;P1;durP2;ratioP2;P2;SDS_P1;SDS_P2;PMS_P1;PMS_P2;Temp;Humidity;BMP_temperature;BMP_pressure;BME280_temperature;BME280_humidity;BME280_pressure;Samples;Min_cycle;Max_cycle;Signal;HPM_P1;HPM_P2
2024/01/03 00:40:51;;;;;;;40.42;23.98;;;;;;;;;;6202995;22;20043;-96
2024/01/03 01:20:04;;;;;;;;;;;;;;;;;;;;;
2024/01/03 01:23:01;;;;;;;;;;;;;;;;;;;;;
2024/01/03 01:26:16;;;;;;;30.17;18.80;;;;;;;;;;6170494;23;20037;-96
2024/01/03 01:32:50;;;;;;;34.03;17.77;;;;;;;;;;6105874;23;20017;-96
2024/01/03 01:34:55;;;;;;;22.52;13.38;;;;;;;;;;6106915;23;20476;-96
2024/01/03 01:37:41;;;;;;;28.08;16.73;;;;;;;;;;6112330;23;20007;-96
2024/01/03 01:40:13;;;;;;;28.48;17.25;;;;;;;;;;6082628;23;20010;-96
2024/01/03 01:46:01;;;;;;;29.02;18.35;;;;;;;;;;6115240;23;20029;-96
2024/01/03 02:05:21;;;;;;;;;;;;;;;;;;;;;
2024/01/03 02:36:58;;;;;;;24.27;17.65;;;;;;;;;;5971247;24;20432;-96
2024/01/03 03:02:40;;;;;;;22.73;19.70;;;;;;;;;;5969317;24;20116;-96
2024/01/03 03:05:29;;;;;;;18.45;15.63;;;;;;;;;;6060290;23;20031;-96
2024/01/03 03:11:46;;;;;;;19.85;17.98;;;;;;;;;;6025081;23;20044;-96
2024/01/03 03:14:55;;;;;;;14.90;13.40;;;;;;;;;;6028323;23;20037;-96
2024/01/03 03:20:56;;;;;;;15.02;12.02;;;;;;;;;;6293636;22;20068;-96
2024/01/03 03:23:50;;;;;;;15.02;13.45;;;;;;;;;;6290913;22;20000;-96
2024/01/03 03:29:42;;;;;;;13.30;9.68;;;;;;;;;;6170193;23;20107;-96
2024/01/03 03:32:29;;;;;;;12.73;9.95;;;;;;;;;;6241067;22;20026;-95
2024/01/03 03:34:55;;;;;;;11.32;7.53;;;;;;;;;;6264146;22;20485;-96
2024/01/03 03:37:22;;;;;;;11.15;8.57;;;;;;;;;;6265131;22;20008;-96
2024/01/03 03:39:48;;;;;;;13.15;10.77;;;;;;;;;;6260830;22;20011;-95
2024/01/03 03:42:14;;;;;;;10.88;9.65;;;;;;;;;;6250926;22;20012;-96
2024/01/03 03:44:48;;;;;;;10.25;7.60;;;;;;;;;;6249610;23;20082;-95
2024/01/03 03:47:34;;;;;;;10.00;8.23;;;;;;;;;;6249100;23;20004;-95
2024/01/03 03:50:08;;;;;;;9.95;8.15;;;;;;;;;;6248673;23;20008;-95
2024/01/03 03:52:35;;;;;;;12.75;8.93;;;;;;;;;;6248176;23;20000;-93
2024/01/03 03:55:09;;;;;;;11.82;10.10;;;;;;;;;;6248147;22;20031;-95
2024/01/03 03:57:38;;;;;;;12.93;9.05;;;;;;;;;;6247368;23;20008;-95
2024/01/03 04:00:08;;;;;;;12.85;10.95;;;;;;;;;;6246956;23;20000;-96
2024/01/03 04:31:19;;;;;;;;;;;;;;;;;;;;;
2024/01/03 04:34:36;;;;;;;15.45;10.68;;;;;;;;;;5986956;24;20008;-96
2024/01/03 04:38:02;;;;;;;12.45;10.25;;;;;;;;;;5978597;24;20012;-96
2024/01/03 04:54:17;;;;;;;12.13;10.73;;;;;;;;;;5990379;24;20023;-96
2024/01/03 05:00:07;;;;;;;;;;;;;;;;;;;;;
2024/01/03 05:02:45;;;;;;;14.70;13.20;;;;;;;;;;6049752;23;20027;-96
2024/01/03 05:05:23;;;;;;;12.45;11.15;;;;;;;;;;6101834;23;20015;-95
2024/01/03 05:08:12;;;;;;;13.23;11.80;;;;;;;;;;6084272;23;20009;-96
2024/01/03 05:10:58;;;;;;;13.40;11.98;;;;;;;;;;6167269;23;20011;-96
2024/01/03 05:14:03;;;;;;;10.23;9.13;;;;;;;;;;6260294;23;20004;-96
2024/01/03 05:16:42;;;;;;;;;;;;;;;;;;;;;
2024/01/03 05:19:45;;;;;;;;;;;;;;;;;;;;;
2024/01/03 05:22:45;;;;;;;9.35;7.60;;;;;;;;;;6191512;23;20029;-96
2024/01/03 05:25:14;;;;;;;11.40;7.50;;;;;;;;;;6247069;23;20036;-93
2024/01/03 05:27:44;;;;;;;8.38;7.28;;;;;;;;;;6247337;23;20000;-94
2024/01/03 05:30:11;;;;;;;8.63;7.78;;;;;;;;;;6247436;23;20004;-95
2024/01/03 05:32:46;;;;;;;8.50;7.43;;;;;;;;;;6247636;23;20000;-94
2024/01/03 05:35:13;;;;;;;8.63;7.30;;;;;;;;;;6247631;23;20064;-94
2024/01/03 05:37:42;;;;;;;7.63;6.68;;;;;;;;;;6248299;23;20513;-93
2024/01/03 05:40:11;;;;;;;9.20;8.40;;;;;;;;;;6247453;23;20008;-95
2024/01/03 05:42:40;;;;;;;6.65;5.50;;;;;;;;;;6247346;23;20004;-94
2024/01/03 05:45:07;;;;;;;9.35;6.70;;;;;;;;;;6257609;22;20020;-96
2024/01/03 05:47:36;;;;;;;9.93;9.02;;;;;;;;;;6247675;23;20004;-95
2024/01/03 05:50:02;;;;;;;7.30;5.93;;;;;;;;;;6247447;23;20012;-95
2024/01/03 05:52:29;;;;;;;8.48;7.63;;;;;;;;;;6247797;23;20000;-95
2024/01/03 05:54:55;;;;;;;8.48;7.43;;;;;;;;;;6247111;23;20020;-96
2024/01/03 05:57:24;;;;;;;8.23;7.38;;;;;;;;;;6247493;23;20004;-96
2024/01/03 05:59:50;;;;;;;6.90;6.30;;;;;;;;;;6247716;23;20079;-96
2024/01/03 06:02:17;;;;;;;5.22;4.57;;;;;;;;;;6247451;23;20011;-96
2024/01/03 06:04:43;;;;;;;6.32;5.82;;;;;;;;;;6247600;23;20016;-95
2024/01/03 06:07:13;;;;;;;7.40;6.65;;;;;;;;;;6247466;23;20007;-95
2024/01/03 06:09:39;;;;;;;7.63;6.97;;;;;;;;;;6247303;23;20004;-95
2024/01/03 06:12:08;;;;;;;8.73;7.93;;;;;;;;;;6247410;23;20000;-94
2024/01/03 06:14:35;;;;;;;7.22;6.53;;;;;;;;;;6247101;23;20094;-95
2024/01/03 06:17:01;;;;;;;9.68;8.88;;;;;;;;;;6247192;23;20030;-95
2024/01/03 06:19:27;;;;;;;8.75;7.78;;;;;;;;;;6247672;23;20004;-95
2024/01/03 06:21:54;;;;;;;8.65;7.97;;;;;;;;;;6247241;23;20004;-95
2024/01/03 06:24:20;;;;;;;6.82;6.00;;;;;;;;;;6247541;23;20016;-95
2024/01/03 06:26:46;;;;;;;6.90;6.28;;;;;;;;;;6247311;23;20103;-95
2024/01/03 06:29:12;;;;;;;8.23;7.53;;;;;;;;;;6247994;23;20005;-94
2024/01/03 06:31:38;;;;;;;5.53;4.65;;;;;;;;;;6247843;23;20015;-96
2024/01/03 06:34:08;;;;;;;7.50;6.85;;;;;;;;;;6247396;23;20110;-95
2024/01/03 06:36:37;;;;;;;6.57;5.60;;;;;;;;;;6247291;23;20030;-96
2024/01/03 06:39:06;;;;;;;14.27;6.88;;;;;;;;;;6247183;23;20000;-94
2024/01/03 06:41:32;;;;;;;8.63;7.88;;;;;;;;;;6247297;23;20024;-95
2024/01/03 06:43:58;;;;;;;5.43;5.03;;;;;;;;;;6248344;22;20000;-96
2024/01/03 06:46:28;;;;;;;7.03;6.43;;;;;;;;;;6252115;22;20053;-94
2024/01/03 06:48:57;;;;;;;6.38;5.90;;;;;;;;;;6252385;22;20031;-95
2024/01/03 06:51:23;;;;;;;5.25;4.80;;;;;;;;;;6252803;22;20003;-96
2024/01/03 06:53:50;;;;;;;5.32;4.85;;;;;;;;;;6252914;22;20003;-95
2024/01/03 06:56:20;;;;;;;5.90;5.47;;;;;;;;;;6252225;22;20004;-95
2024/01/03 06:58:49;;;;;;;7.85;7.20;;;;;;;;;;6253079;22;20337;-95
2024/01/03 07:01:16;;;;;;;6.35;4.22;;;;;;;;;;6279790;22;19992;-95
2024/01/03 07:03:42;;;;;;;5.40;4.70;;;;;;;;;;6274848;22;20015;-95
2024/01/03 07:06:08;;;;;;;6.07;4.18;;;;;;;;;;6252093;22;20429;-95
2024/01/03 07:08:34;;;;;;;5.78;5.25;;;;;;;;;;6252196;22;20035;-95
2024/01/03 07:11:00;;;;;;;5.07;3.92;;;;;;;;;;6251830;22;20004;-95
2024/01/03 07:13:31;;;;;;;4.72;4.20;;;;;;;;;;6254365;22;20049;-95
2024/01/03 07:15:57;;;;;;;5.53;4.82;;;;;;;;;;6253065;22;20004;-95
2024/01/03 07:18:23;;;;;;;6.30;4.80;;;;;;;;;;6253137;22;20003;-95
2024/01/03 07:20:49;;;;;;;6.00;5.57;;;;;;;;;;6252359;22;20038;-95
2024/01/03 07:23:21;;;;;;;6.18;5.75;;;;;;;;;;6251716;22;20031;-93
2024/01/03 07:25:47;;;;;;;6.43;5.95;;;;;;;;;;6251451;22;20011;-95
2024/01/03 07:28:14;;;;;;;7.95;7.38;;;;;;;;;;6251913;22;20000;-94
2024/01/03 07:30:40;;;;;;;6.32;5.85;;;;;;;;;;6249324;22;20091;-96
2024/01/03 07:33:07;;;;;;;8.55;7.75;;;;;;;;;;6251967;22;20011;-96
2024/01/03 07:35:49;;;;;;;13.73;12.93;;;;;;;;;;6251738;22;20003;-95
2024/01/03 07:38:16;;;;;;;15.00;13.88;;;;;;;;;;6251726;22;20008;-96
2024/01/03 07:40:42;;;;;;;13.10;12.30;;;;;;;;;;6252026;22;20010;-94
2024/01/03 07:43:08;;;;;;;12.00;10.98;;;;;;;;;;6252317;22;20383;-96
2024/01/03 07:45:35;;;;;;;9.93;9.23;;;;;;;;;;6246577;23;20070;-96
2024/01/03 07:48:01;;;;;;;7.03;6.53;;;;;;;;;;6246951;23;20433;-96
2024/01/03 07:53:21;;;;;;;5.75;5.25;;;;;;;;;;6237565;23;20054;-96
2024/01/03 07:55:53;;;;;;;6.00;5.47;;;;;;;;;;6246704;23;20008;-96
2024/01/03 07:58:24;;;;;;;3.67;3.35;;;;;;;;;;6246810;23;20007;-96
2024/01/03 08:00:50;;;;;;;4.30;3.92;;;;;;;;;;6247149;23;20004;-96
2024/01/03 08:03:16;;;;;;;4.00;3.70;;;;;;;;;;6247781;23;20004;-96
2024/01/03 08:05:44;;;;;;;4.72;4.38;;;;;;;;;;6222059;23;20016;-96
2024/01/03 08:08:10;;;;;;;5.85;5.45;;;;;;;;;;6247157;23;20318;-96
2024/01/03 08:10:37;;;;;;;3.45;2.40;;;;;;;;;;6246318;23;20004;-96
2024/01/03 08:13:03;;;;;;;4.22;3.92;;;;;;;;;;6246742;23;20035;-96
2024/01/03 08:15:52;;;;;;;3.75;2.72;;;;;;;;;;6246313;23;20000;-96
2024/01/03 08:18:36;;;;;;;3.28;2.83;;;;;;;;;;6192762;23;20008;-96
2024/01/03 08:21:05;;;;;;;3.75;3.10;;;;;;;;;;6246191;23;20007;-95
2024/01/03 08:23:31;;;;;;;2.75;2.38;;;;;;;;;;6245580;23;20000;-96
2024/01/03 08:26:00;;;;;;;2.50;1.75;;;;;;;;;;6245824;23;20086;-94
2024/01/03 08:28:30;;;;;;;1.95;1.08;;;;;;;;;;6245817;23;20000;-95
2024/01/03 08:31:02;;;;;;;2.45;1.00;;;;;;;;;;6246198;23;20041;-96
2024/01/03 08:33:36;;;;;;;1.60;0.98;;;;;;;;;;6247380;23;20000;-96
2024/01/03 08:36:26;;;;;;;1.05;0.75;;;;;;;;;;6248617;23;20008;-96
2024/01/03 08:38:52;;;;;;;3.05;1.00;;;;;;;;;;6249183;23;20000;-96
2024/01/03 08:41:19;;;;;;;1.75;0.90;;;;;;;;;;6267622;22;19992;-95
2024/01/03 08:43:46;;;;;;;1.25;0.80;;;;;;;;;;6273699;22;19992;-96
2024/01/03 08:46:12;;;;;;;3.42;2.10;;;;;;;;;;6224503;22;20020;-96
2024/01/03 08:49:02;;;;;;;1.88;1.20;;;;;;;;;;6221878;23;20004;-96
2024/01/03 08:51:39;;;;;;;;;;;;;;;;;;;;;
2024/01/03 08:54:06;;;;;;;2.08;1.60;;;;;;;;;;6246102;23;20068;-96
2024/01/03 08:56:35;;;;;;;1.73;1.10;;;;;;;;;;6223035;23;20004;-96
2024/01/03 08:59:12;;;;;;;1.23;0.90;;;;;;;;;;6224258;23;20030;-96
2024/01/03 09:01:38;;;;;;;1.55;1.08;;;;;;;;;;6220762;23;20489;-96
2024/01/03 09:04:07;;;;;;;1.20;0.90;;;;;;;;;;6222216;23;20435;-95
2024/01/03 09:06:35;;;;;;;1.30;0.85;;;;;;;;;;6221128;23;20460;-96
2024/01/03 09:09:05;;;;;;;1.73;0.70;;;;;;;;;;6223517;22;20005;-95
2024/01/03 09:16:52;;;;;;;1.10;0.80;;;;;;;;;;6265891;22;20027;-96
2024/01/03 09:22:21;;;;;;;;;;;;;;;;;;6279651;22;20454;-96
2024/01/03 09:24:47;;;;;;;1.30;0.90;;;;;;;;;;6251578;22;19907;-96
2024/01/03 09:27:17;;;;;;;1.13;0.80;;;;;;;;;;6251604;22;20004;-95
2024/01/03 09:30:06;;;;;;;1.30;0.88;;;;;;;;;;6250987;22;20007;-96
2024/01/03 09:32:32;;;;;;;1.25;0.68;;;;;;;;;;6250846;22;20061;-95
2024/01/03 09:34:58;;;;;;;1.20;0.80;;;;;;;;;;6251832;22;20012;-95
2024/01/03 09:37:32;;;;;;;1.35;0.88;;;;;;;;;;6250557;22;20019;-94
2024/01/03 09:39:59;;;;;;;1.38;0.95;;;;;;;;;;6252457;22;20039;-95
2024/01/03 09:42:28;;;;;;;1.17;0.80;;;;;;;;;;6250159;22;20000;-96
2024/01/03 09:44:55;;;;;;;2.25;0.82;;;;;;;;;;6248535;22;20011;-93
2024/01/03 09:47:24;;;;;;;1.83;1.02;;;;;;;;;;6253250;23;20008;-95
2024/01/03 09:49:51;;;;;;;1.42;0.80;;;;;;;;;;6247092;23;20008;-96
2024/01/03 09:52:17;;;;;;;1.20;0.75;;;;;;;;;;6247838;23;20012;-95
2024/01/03 09:54:54;;;;;;;1.63;0.95;;;;;;;;;;6249009;23;20079;-96
2024/01/03 09:57:27;;;;;;;1.40;0.80;;;;;;;;;;6249310;23;20035;-96
2024/01/03 09:59:55;;;;;;;;;;;;;;;;;;6248283;23;20011;-96
2024/01/03 10:02:31;;;;;;;1.40;0.80;;;;;;;;;;6248426;23;19946;-95
2024/01/03 10:05:00;;;;;;;1.25;0.73;;;;;;;;;;6250362;23;20012;-96
2024/01/03 10:07:39;;;;;;;2.40;1.10;;;;;;;;;;6251167;23;20024;-95
2024/01/03 10:10:21;;;;;;;;;;;;;;;;;;;;;
2024/01/03 10:12:54;;;;;;;1.50;1.00;;;;;;;;;;6252302;23;20075;-96
2024/01/03 10:15:21;;;;;;;1.20;1.02;;;;;;;;;;6225346;23;20020;-95
2024/01/03 10:17:48;;;;;;;1.60;1.08;;;;;;;;;;6252609;22;20092;-93
2024/01/03 10:20:24;;;;;;;2.03;1.23;;;;;;;;;;6252284;23;20456;-96
2024/01/03 10:23:10;;;;;;;1.30;0.90;;;;;;;;;;6267291;22;20079;-95
2024/01/03 10:25:43;;;;;;;3.38;1.95;;;;;;;;;;6273320;22;20048;-94
2024/01/03 10:28:09;;;;;;;;;;;;;;;;;;6248493;23;20004;-94
2024/01/03 10:30:54;;;;;;;4.60;1.63;;;;;;;;;;6247455;23;19968;-93
2024/01/03 10:33:23;;;;;;;1.50;1.40;;;;;;;;;;6248597;23;20031;-94
2024/01/03 10:35:49;;;;;;;1.75;1.10;;;;;;;;;;6246932;23;20110;-92
2024/01/03 10:38:20;;;;;;;1.52;0.90;;;;;;;;;;6246662;23;20000;-94
2024/01/03 10:44:01;;;;;;;2.15;1.33;;;;;;;;;;6248209;22;20179;-93
2024/01/03 10:46:28;;;;;;;1.42;1.00;;;;;;;;;;6246909;23;20004;-93
2024/01/03 10:49:12;;;;;;;3.60;1.05;;;;;;;;;;6247357;23;20103;-94
2024/01/03 10:51:48;;;;;;;1.60;0.90;;;;;;;;;;6252396;22;20087;-94
2024/01/03 10:54:18;;;;;;;2.60;0.80;;;;;;;;;;6282711;22;20015;-94
2024/01/03 11:03:06;;;;;;;2.30;1.40;;;;;;;;;;6308197;22;19968;-95
2024/01/03 11:08:49;;;;;;;2.47;1.60;;;;;;;;;;6304254;22;20073;-95
2024/01/03 11:11:34;;;;;;;1.88;1.67;;;;;;;;;;6287299;22;20003;-94
2024/01/03 11:14:26;;;;;;;3.20;1.75;;;;;;;;;;6284611;22;20007;-93
2024/01/03 11:16:53;;;;;;;3.70;2.42;;;;;;;;;;6283493;22;20139;-96
2024/01/03 11:19:37;;;;;;;3.20;2.63;;;;;;;;;;6287994;22;20003;-95
2024/01/03 11:22:03;;;;;;;2.50;2.22;;;;;;;;;;6290520;22;20007;-95
2024/01/03 11:24:48;;;;;;;3.45;2.50;;;;;;;;;;6288886;22;20075;-95
2024/01/03 11:27:19;;;;;;;4.07;2.08;;;;;;;;;;6285523;22;19999;-96
2024/01/03 11:29:45;;;;;;;3.00;1.90;;;;;;;;;;6285071;22;20064;-93
2024/01/03 11:32:47;;;;;;;3.08;2.88;;;;;;;;;;6287671;22;20011;-94
2024/01/03 11:35:36;;;;;;;2.60;2.40;;;;;;;;;;6282959;22;20007;-95
2024/01/03 11:38:33;;;;;;;;;;;;;;;;;;;;;
2024/01/03 11:40:59;;;;;;;3.13;2.83;;;;;;;;;;6316365;22;20026;-95
2024/01/03 11:43:32;;;;;;;2.78;2.40;;;;;;;;;;6290598;22;19983;-94
2024/01/03 11:46:11;;;;;;;3.03;2.47;;;;;;;;;;6283667;22;20095;-96
2024/01/03 11:48:38;;;;;;;4.70;2.53;;;;;;;;;;6285078;22;20014;-95
2024/01/03 11:51:20;;;;;;;7.53;2.83;;;;;;;;;;6282857;22;19999;-96
2024/01/03 11:53:52;;;;;;;3.38;2.75;;;;;;;;;;6288453;22;20010;-93
2024/01/03 11:56:47;;;;;;;3.20;2.60;;;;;;;;;;6283164;22;20026;-96
2024/01/03 11:59:25;;;;;;;3.17;2.88;;;;;;;;;;6249591;23;20035;-93
2024/01/03 12:01:56;;;;;;;3.75;3.45;;;;;;;;;;6218083;23;20025;-92
2024/01/03 12:04:25;;;;;;;3.70;3.38;;;;;;;;;;6193976;23;20035;-93
2024/01/03 12:06:56;;;;;;;4.05;3.67;;;;;;;;;;6217462;23;20044;-92
2024/01/03 12:09:37;;;;;;;4.63;4.22;;;;;;;;;;6239154;22;20078;-96
2024/01/03 12:12:11;;;;;;;4.68;4.30;;;;;;;;;;6276893;22;20082;-95
2024/01/03 12:14:37;;;;;;;6.00;5.40;;;;;;;;;;6279086;22;20012;-93
2024/01/03 12:20:42;;;;;;;5.45;5.05;;;;;;;;;;6185627;23;20071;-93
2024/01/03 12:23:45;;;;;;;5.65;5.25;;;;;;;;;;6260108;22;20046;-96
2024/01/03 12:26:57;;;;;;;8.57;8.07;;;;;;;;;;6286984;22;19995;-96
2024/01/03 12:29:20;;;;;;;6.55;6.05;;;;;;;;;;6255412;22;20004;-96
2024/01/03 12:31:46;;;;;;;7.32;6.63;;;;;;;;;;6281028;22;20004;-93
2024/01/03 12:34:18;;;;;;;8.82;7.28;;;;;;;;;;6279976;22;20016;-96
2024/01/03 12:36:45;;;;;;;8.85;7.43;;;;;;;;;;6279268;22;20003;-93
2024/01/03 12:48:32;;;;;;;9.40;8.80;;;;;;;;;;6260257;22;20020;31
2024/01/03 12:50:58;;;;;;;10.90;10.10;;;;;;;;;;6248727;22;20023;-93
2024/01/03 12:56:00;;;;;;;10.05;9.50;;;;;;;;;;6242357;22;20028;-92
2024/01/03 13:04:10;;;;;;;10.55;9.85;;;;;;;;;;6256633;22;20027;-96
2024/01/03 13:14:35;;;;;;;9.88;9.25;;;;;;;;;;6315658;22;20019;-93
2024/01/03 13:17:04;;;;;;;10.55;9.95;;;;;;;;;;6282813;22;20003;-96
2024/01/03 13:19:39;;;;;;;9.32;8.57;;;;;;;;;;6286184;22;20014;-95
2024/01/03 13:25:39;;;;;;;11.02;9.73;;;;;;;;;;6311135;22;20026;-96
2024/01/03 13:28:15;;;;;;;10.68;10.07;;;;;;;;;;6287695;22;20057;-94
2024/01/03 13:30:44;;;;;;;10.90;10.27;;;;;;;;;;6285866;22;20004;-95
2024/01/03 13:33:13;;;;;;;9.18;8.57;;;;;;;;;;6258284;22;20016;-96
2024/01/03 13:35:48;;;;;;;13.23;12.32;;;;;;;;;;6253471;23;20115;-96
2024/01/03 13:38:18;;;;;;;11.20;10.50;;;;;;;;;;6255198;23;20045;-96
2024/01/03 13:41:06;;;;;;;11.15;10.52;;;;;;;;;;6255404;23;20004;-96
2024/01/03 13:43:39;;;;;;;11.35;10.65;;;;;;;;;;6253238;23;20008;-96
2024/01/03 13:48:56;;;;;;;10.07;9.48;;;;;;;;;;6271056;22;20279;-96
2024/01/03 13:54:01;;;;;;;13.70;12.80;;;;;;;;;;6283810;22;20065;-93
2024/01/03 13:56:38;;;;;;;12.63;11.80;;;;;;;;;;6255496;22;20022;-96
2024/01/03 13:59:10;;;;;;;14.70;13.85;;;;;;;;;;6255343;22;20069;-95
2024/01/03 14:01:36;;;;;;;11.52;10.73;;;;;;;;;;6255623;22;20010;-96
2024/01/03 14:20:32;;;;;;;6.95;6.55;;;;;;;;;;6270639;22;20019;-96
2024/01/03 14:26:27;;;;;;;6.65;6.00;;;;;;;;;;6156952;23;20020;-94
2024/01/03 14:39:22;;;;;;;13.23;12.43;;;;;;;;;;6261451;22;20016;-95
2024/01/03 14:42:31;;;;;;;11.45;10.75;;;;;;;;;;6248125;22;20016;-95
2024/01/03 14:51:21;;;;;;;16.33;15.38;;;;;;;;;;6257821;22;20078;-94
2024/01/03 14:53:53;;;;;;;9.27;8.55;;;;;;;;;;6278270;22;20012;-96
2024/01/03 14:56:23;;;;;;;10.77;9.98;;;;;;;;;;6278698;22;20030;-96
2024/01/03 14:58:52;;;;;;;7.97;7.47;;;;;;;;;;6277760;22;20049;-95
2024/01/03 15:01:18;;;;;;;9.60;9.00;;;;;;;;;;6278961;22;20008;-96
2024/01/03 15:03:45;;;;;;;11.43;10.73;;;;;;;;;;6277435;22;20030;-94
2024/01/03 15:06:11;;;;;;;7.00;6.55;;;;;;;;;;6278281;22;20004;-96
2024/01/03 15:08:37;;;;;;;7.22;6.72;;;;;;;;;;6283724;22;20004;-96
2024/01/03 15:11:05;;;;;;;6.80;6.30;;;;;;;;;;6283160;22;20003;-96
2024/01/03 15:13:40;;;;;;;7.25;6.75;;;;;;;;;;6279736;22;20000;-96
2024/01/03 15:16:07;;;;;;;8.55;7.88;;;;;;;;;;6283324;22;20016;-95
2024/01/03 15:18:37;;;;;;;6.57;6.05;;;;;;;;;;6281964;22;20011;-96
2024/01/03 15:21:15;;;;;;;8.73;8.15;;;;;;;;;;6283153;22;20008;-93
2024/01/03 15:24:07;;;;;;;7.32;6.72;;;;;;;;;;6283312;22;20091;-96
2024/01/03 15:26:33;;;;;;;7.72;7.07;;;;;;;;;;6266609;22;20084;-96
2024/01/03 15:32:13;;;;;;;8.95;8.23;;;;;;;;;;6250684;22;19992;-95
2024/01/03 15:34:45;;;;;;;6.70;5.55;;;;;;;;;;6298314;22;20019;-95
2024/01/03 15:37:25;;;;;;;;;;;;;;;;;;;;;
2024/01/03 15:39:51;;;;;;;9.73;9.02;;;;;;;;;;6279476;22;20396;-95
2024/01/03 15:42:23;;;;;;;8.93;8.32;;;;;;;;;;6277484;22;20000;-95
2024/01/03 15:44:49;;;;;;;9.30;8.73;;;;;;;;;;6278561;22;20007;-95
2024/01/03 15:47:16;;;;;;;12.98;11.93;;;;;;;;;;6278709;22;20000;-96
2024/01/03 15:49:43;;;;;;;9.75;9.23;;;;;;;;;;6277836;22;20011;-96
2024/01/03 15:52:25;;;;;;;9.40;8.80;;;;;;;;;;6278018;22;20016;-96
2024/01/03 15:54:54;;;;;;;14.80;13.90;;;;;;;;;;6277391;22;20043;-95
2024/01/03 15:57:29;;;;;;;13.25;12.52;;;;;;;;;;6277340;22;20007;-96
2024/01/03 15:59:55;;;;;;;11.93;11.07;;;;;;;;;;6277535;22;20008;-93
2024/01/03 16:02:21;;;;;;;15.30;14.40;;;;;;;;;;6276890;22;20010;-96
2024/01/03 16:04:51;;;;;;;14.45;13.55;;;;;;;;;;6277253;22;20350;-94
2024/01/03 16:07:17;;;;;;;13.95;13.05;;;;;;;;;;6277222;22;20026;-96
2024/01/03 16:09:43;;;;;;;12.35;11.45;;;;;;;;;;6252964;22;20057;-96
2024/01/03 16:12:24;;;;;;;12.48;11.75;;;;;;;;;;6279390;22;20008;-96
2024/01/03 16:14:53;;;;;;;10.18;9.38;;;;;;;;;;6284143;22;20015;-96
2024/01/03 16:17:26;;;;;;;10.38;9.55;;;;;;;;;;6291430;22;20003;-96
2024/01/03 16:19:59;;;;;;;12.65;11.77;;;;;;;;;;6262705;22;20012;-96
2024/01/03 16:22:25;;;;;;;8.48;7.78;;;;;;;;;;6260280;22;20014;-96
2024/01/03 16:25:10;;;;;;;14.05;13.25;;;;;;;;;;6283811;22;20061;-96
2024/01/03 16:27:50;;;;;;;;;;;;;;;;;;;;;
2024/01/03 16:30:26;;;;;;;12.15;11.40;;;;;;;;;;6283415;22;20011;-96
2024/01/03 16:32:55;;;;;;;13.85;12.95;;;;;;;;;;6283091;22;20333;-94
2024/01/03 16:35:24;;;;;;;12.82;12.07;;;;;;;;;;6281435;22;20016;-96
2024/01/03 16:37:53;;;;;;;11.98;11.27;;;;;;;;;;6256022;22;20012;-96
2024/01/03 16:40:54;;;;;;;11.20;10.60;;;;;;;;;;6284156;22;20008;-94
2024/01/03 16:43:26;;;;;;;11.80;11.00;;;;;;;;;;6281315;22;20008;-94
2024/01/03 16:45:53;;;;;;;11.13;10.48;;;;;;;;;;6294018;22;20007;-93
2024/01/03 16:48:33;;;;;;;;;;;;;;;;;;;;;
2024/01/03 16:51:15;;;;;;;12.25;11.55;;;;;;;;;;6281925;22;20472;-96
2024/01/03 16:53:47;;;;;;;13.75;12.90;;;;;;;;;;6279234;22;20004;-94
2024/01/03 17:08:14;;;;;;;16.35;15.18;;;;;;;;;;6284577;22;20428;-96
2024/01/03 17:10:44;;;;;;;15.00;14.00;;;;;;;;;;6284686;22;20030;-96
2024/01/03 17:13:27;;;;;;;12.10;11.20;;;;;;;;;;6285706;22;20007;-96
2024/01/03 17:32:51;;;;;;;6.57;5.72;;;;;;;;;;6258458;22;20079;-95
2024/01/03 17:38:22;;;;;;;7.25;6.47;;;;;;;;;;6281590;22;20065;-95
2024/01/03 17:40:48;;;;;;;8.40;7.63;;;;;;;;;;6253738;22;19999;-95
2024/01/03 17:43:51;;;;;;;12.27;11.20;;;;;;;;;;6236990;22;20007;-96
2024/01/03 17:46:42;;;;;;;10.18;9.20;;;;;;;;;;6254126;22;20015;-94
2024/01/03 17:49:23;;;;;;;11.30;10.50;;;;;;;;;;6251805;22;20523;-95
2024/01/03 17:52:15;;;;;;;9.43;8.55;;;;;;;;;;6252657;22;20034;-94
2024/01/03 17:54:41;;;;;;;10.45;9.57;;;;;;;;;;6252484;22;20047;-96
2024/01/03 17:57:33;;;;;;;11.73;10.80;;;;;;;;;;6251948;22;20008;-93
2024/01/03 18:00:25;;;;;;;13.32;12.23;;;;;;;;;;6214505;23;20088;-94
2024/01/03 18:02:51;;;;;;;10.60;9.80;;;;;;;;;;6229079;22;20066;-94
2024/01/03 18:05:18;;;;;;;14.90;13.85;;;;;;;;;;6245730;23;20004;-94
2024/01/03 18:07:52;;;;;;;17.75;16.42;;;;;;;;;;6247991;23;20434;-94
2024/01/03 18:10:18;;;;;;;18.38;16.98;;;;;;;;;;6254335;22;20007;-94
2024/01/03 18:12:52;;;;;;;13.50;12.52;;;;;;;;;;6252428;22;20004;-96
2024/01/03 18:18:19;;;;;;;12.57;11.38;;;;;;;;;;6256553;22;20047;-95
2024/01/03 18:20:45;;;;;;;18.98;17.73;;;;;;;;;;6251163;23;20004;-94
2024/01/03 18:23:18;;;;;;;19.45;18.15;;;;;;;;;;6255061;23;20560;-94
2024/01/03 18:25:49;;;;;;;22.52;21.13;;;;;;;;;;6248742;23;20083;-95
2024/01/03 18:28:27;;;;;;;15.45;14.27;;;;;;;;;;6246540;23;20008;-94
2024/01/03 18:33:56;;;;;;;15.32;14.13;;;;;;;;;;6173563;22;20060;-94
2024/01/03 18:36:38;;;;;;;16.05;14.65;;;;;;;;;;6251032;23;20016;-96
2024/01/03 18:41:51;;;;;;;22.92;21.33;;;;;;;;;;5579645;22;15221088;-96
2024/01/03 18:44:23;;;;;;;25.45;23.67;;;;;;;;;;6207519;23;20017;-96
2024/01/03 18:58:08;;;;;;;18.90;17.55;;;;;;;;;;6277127;22;20393;-94
2024/01/03 19:00:36;;;;;;;17.48;16.20;;;;;;;;;;6254077;22;20004;-95
2024/01/03 19:03:46;;;;;;;16.30;14.95;;;;;;;;;;6221522;23;20036;-94
2024/01/03 19:06:12;;;;;;;20.00;18.50;;;;;;;;;;6081392;23;20021;-95
2024/01/03 19:08:44;;;;;;;21.98;20.60;;;;;;;;;;6162415;22;20000;-93
2024/01/03 19:13:56;;;;;;;19.10;17.98;;;;;;;;;;6282366;22;20091;-93
2024/01/03 19:25:40;;;;;;;22.90;21.20;;;;;;;;;;6248158;23;20480;-95
2024/01/03 20:12:01;;;;;;;24.50;22.98;;;;;;;;;;6279258;22;20046;-94
2024/01/03 20:15:00;;;;;;;22.58;21.08;;;;;;;;;;6276342;22;20023;-95
2024/01/03 20:17:42;;;;;;;21.05;19.67;;;;;;;;;;6229448;22;20007;-95
2024/01/03 20:23:07;;;;;;;17.75;16.27;;;;;;;;;;6259514;22;20034;-94
2024/01/03 20:25:39;;;;;;;23.75;22.17;;;;;;;;;;6245815;23;20075;-95
2024/01/03 20:28:21;;;;;;;18.48;17.17;;;;;;;;;;6246469;23;20315;-94
2024/01/03 20:30:51;;;;;;;21.13;19.45;;;;;;;;;;6247015;23;20008;-94
2024/01/03 20:33:27;;;;;;;14.88;13.65;;;;;;;;;;6248773;23;20004;-96
2024/01/03 20:36:09;;;;;;;12.85;11.85;;;;;;;;;;6249808;23;20020;-94
2024/01/03 20:41:53;;;;;;;19.92;18.65;;;;;;;;;;6251248;23;20049;-95
2024/01/03 20:50:09;;;;;;;12.18;11.00;;;;;;;;;;6249969;23;20011;-93
2024/01/03 20:52:44;;;;;;;15.82;14.80;;;;;;;;;;6258150;22;19993;-92
2024/01/03 20:57:48;;;;;;;15.20;13.95;;;;;;;;;;6289001;22;20031;-94
2024/01/03 21:00:21;;;;;;;14.40;13.10;;;;;;;;;;6251010;22;20524;-95
2024/01/03 21:03:02;;;;;;;12.40;11.30;;;;;;;;;;6250730;22;20011;-92
2024/01/03 21:05:31;;;;;;;13.45;12.25;;;;;;;;;;6250844;22;20010;-92
2024/01/03 21:08:07;;;;;;;12.38;11.15;;;;;;;;;;6250696;22;20008;-94
2024/01/03 21:10:33;;;;;;;10.13;8.25;;;;;;;;;;6251496;22;20003;-95
2024/01/03 21:13:02;;;;;;;14.82;13.52;;;;;;;;;;6251212;22;20000;-93
2024/01/03 21:15:40;;;;;;;11.10;9.82;;;;;;;;;;6251764;22;20016;-96
2024/01/03 21:18:09;;;;;;;10.05;7.80;;;;;;;;;;6251210;22;20000;-94
2024/01/03 21:20:38;;;;;;;10.02;7.80;;;;;;;;;;6251189;22;20390;-94
2024/01/03 21:23:11;;;;;;;12.52;11.32;;;;;;;;;;6245415;23;20004;-94
2024/01/03 21:25:44;;;;;;;9.45;7.18;;;;;;;;;;6245673;23;20027;-94
2024/01/03 21:28:14;;;;;;;7.97;7.07;;;;;;;;;;6250211;23;20009;-92
2024/01/03 21:30:40;;;;;;;7.80;5.32;;;;;;;;;;6254519;23;20130;-93
2024/01/03 21:33:09;;;;;;;10.77;6.78;;;;;;;;;;6246104;23;20438;-93
2024/01/03 21:35:45;;;;;;;7.97;7.15;;;;;;;;;;6245417;23;20012;-93
2024/01/03 21:38:20;;;;;;;8.70;7.55;;;;;;;;;;6245496;23;20115;-93
2024/01/03 21:41:07;;;;;;;8.65;7.70;;;;;;;;;;6245276;23;20008;-93
2024/01/03 21:43:36;;;;;;;7.30;5.88;;;;;;;;;;6151087;23;20028;-96
2024/01/03 21:46:08;;;;;;;6.70;5.90;;;;;;;;;;6247327;23;20000;-93
2024/01/03 21:48:40;;;;;;;9.13;8.23;;;;;;;;;;6247657;23;20008;-95
2024/01/03 21:51:09;;;;;;;8.15;6.75;;;;;;;;;;6248569;23;20087;-93
2024/01/03 21:53:35;;;;;;;8.20;7.43;;;;;;;;;;6252900;22;20004;-95
2024/01/03 21:56:02;;;;;;;8.43;7.63;;;;;;;;;;6255540;22;20065;-95
2024/01/03 21:58:34;;;;;;;8.82;7.93;;;;;;;;;;6279723;22;20032;-92
2024/01/03 22:01:06;;;;;;;8.93;8.13;;;;;;;;;;6278869;22;20081;-94
2024/01/03 22:03:32;;;;;;;9.43;8.43;;;;;;;;;;6278033;22;20008;-94
2024/01/03 22:06:01;;;;;;;9.15;8.25;;;;;;;;;;6278057;22;20032;-94
2024/01/03 22:08:27;;;;;;;10.07;9.07;;;;;;;;;;6278726;22;20011;-95
2024/01/03 22:10:54;;;;;;;13.40;12.30;;;;;;;;;;6278240;22;20415;-95
2024/01/03 22:13:26;;;;;;;11.07;10.00;;;;;;;;;;6278811;22;20011;-95
2024/01/03 22:15:58;;;;;;;11.82;10.68;;;;;;;;;;6278617;22;20042;-94
2024/01/03 22:18:24;;;;;;;14.55;13.23;;;;;;;;;;6278768;22;20000;-95
2024/01/03 22:20:56;;;;;;;11.88;10.70;;;;;;;;;;6279160;22;20004;-94
2024/01/03 22:23:25;;;;;;;13.45;10.32;;;;;;;;;;6279133;22;20095;-95
2024/01/03 22:25:52;;;;;;;11.68;10.65;;;;;;;;;;6277765;22;20038;-95
2024/01/03 22:28:18;;;;;;;12.63;11.27;;;;;;;;;;6278816;22;20007;-96
2024/01/03 22:30:47;;;;;;;12.68;11.25;;;;;;;;;;6280200;22;20000;-94
2024/01/03 22:33:14;;;;;;;11.25;9.77;;;;;;;;;;6280836;22;20090;-95